Terminal Aerodrome Forecast
Issued by NWS Flagstaff, AZ

Home | Current Version | Previous Version | Text Only | Print | Product List | Glossary On
Versions: 1 2 3 4 5 6 7 8 9 10 11 12 13 14 15 16 17 18
847
FTUS45 KFGZ 192336
TAFINW
TAF
KINW 192336Z 2000/2024 15012G18KT P6SM SCT100 BKN150
     FM200200 25008KT P6SM FEW100 SCT150
     FM201700 22020G30KT P6SM SCT250=

USA.gov is the U.S. government's official web portal to all federal, state and local government web resources and services.